createdAt,value
2019-03-19T00:00:03.277Z,5.49
2019-03-19T00:01:03.235Z,5.49
2019-03-19T00:02:03.230Z,5.50
2019-03-19T00:03:11.425Z,5.50
2019-03-19T00:05:07.696Z,5.48
2019-03-19T00:06:07.673Z,5.48
2019-03-19T00:07:07.670Z,5.38
2019-03-19T00:08:07.652Z,5.35
2019-03-19T00:09:07.648Z,5.34
2019-03-19T00:10:07.697Z,5.35
2019-03-19T00:11:07.633Z,5.35
2019-03-19T00:12:07.608Z,5.38
2019-03-19T00:13:07.595Z,5.28
2019-03-19T00:14:07.591Z,5.30
2019-03-19T00:15:07.595Z,5.35
2019-03-19T00:16:07.624Z,5.34
2019-03-19T00:17:07.558Z,5.31
2019-03-19T00:18:07.555Z,5.30
2019-03-19T00:19:07.534Z,5.25
2019-03-19T00:20:07.543Z,5.31
2019-03-19T00:21:07.526Z,5.34
2019-03-19T00:22:07.503Z,5.46
2019-03-19T00:23:07.496Z,5.40
2019-03-19T00:24:07.486Z,5.34
2019-03-19T00:25:07.484Z,5.45
2019-03-19T00:26:07.493Z,5.43
2019-03-19T00:27:07.462Z,5.50
2019-03-19T00:28:07.448Z,5.52
2019-03-19T00:29:07.434Z,5.48
2019-03-19T00:30:07.430Z,5.53
2019-03-19T00:31:07.427Z,5.49
2019-03-19T00:32:07.408Z,5.57
2019-03-19T00:33:07.411Z,5.57
2019-03-19T00:34:07.390Z,5.59
2019-03-19T00:35:07.378Z,5.60
2019-03-19T00:36:07.371Z,5.67
2019-03-19T00:37:07.359Z,5.64
2019-03-19T00:38:07.346Z,5.70
2019-03-19T00:39:07.372Z,5.68
2019-03-19T00:40:07.351Z,5.63
2019-03-19T00:41:07.332Z,5.73
2019-03-19T00:42:07.309Z,5.64
2019-03-19T00:43:07.322Z,5.66
2019-03-19T00:44:07.292Z,5.66
2019-03-19T00:45:07.417Z,5.59
2019-03-19T00:46:07.279Z,5.63
2019-03-19T00:47:07.288Z,5.66
2019-03-19T00:48:07.353Z,5.78
2019-03-19T00:49:07.257Z,5.75
2019-03-19T00:50:07.238Z,5.71
2019-03-19T00:51:07.273Z,5.85
2019-03-19T00:52:07.217Z,5.77
2019-03-19T00:53:07.207Z,5.82
2019-03-19T00:54:07.213Z,5.83
2019-03-19T00:55:07.193Z,5.89
2019-03-19T00:56:07.185Z,5.98
2019-03-19T00:57:07.176Z,5.98
2019-03-19T00:58:07.170Z,5.96
2019-03-19T00:59:07.144Z,5.95
2019-03-19T01:00:07.159Z,5.93
2019-03-19T01:01:07.131Z,5.96
2019-03-19T01:02:07.130Z,5.86
2019-03-19T01:03:07.144Z,5.93
2019-03-19T01:04:07.161Z,5.93
2019-03-19T01:05:07.149Z,5.91
2019-03-19T01:06:07.138Z,6.01
2019-03-19T01:07:07.148Z,5.98
2019-03-19T01:08:07.112Z,6.03
2019-03-19T01:09:07.094Z,6.13
2019-03-19T01:10:07.101Z,6.13
2019-03-19T01:11:07.070Z,6.10
2019-03-19T01:12:07.084Z,6.06
2019-03-19T01:13:07.080Z,6.03
2019-03-19T01:14:07.033Z,6.07
2019-03-19T01:15:07.030Z,6.03
2019-03-19T01:16:07.042Z,6.06
2019-03-19T01:17:07.141Z,6.01
2019-03-19T01:18:06.997Z,6.07
2019-03-19T01:19:06.992Z,5.98
2019-03-19T01:20:07.009Z,6.06
2019-03-19T01:21:06.941Z,6.09
2019-03-19T01:22:06.950Z,6.11
2019-03-19T01:23:06.959Z,6.21
2019-03-19T01:24:06.967Z,6.18
2019-03-19T01:25:06.960Z,6.14
2019-03-19T01:26:06.895Z,6.14
2019-03-19T01:27:06.885Z,6.11
2019-03-19T01:28:06.914Z,6.18
2019-03-19T01:29:06.909Z,6.18
2019-03-19T01:30:06.885Z,6.10
2019-03-19T01:31:06.884Z,6.06
2019-03-19T01:32:06.867Z,6.09
2019-03-19T01:33:06.879Z,6.01
2019-03-19T01:34:06.874Z,6.00
2019-03-19T01:35:06.907Z,6.04
2019-03-19T01:36:06.877Z,6.01
2019-03-19T01:37:06.800Z,6.00
2019-03-19T01:38:06.822Z,6.00
2019-03-19T01:39:06.798Z,6.00
2019-03-19T01:40:06.763Z,6.00
2019-03-19T01:41:06.769Z,5.98
2019-03-19T01:42:06.899Z,5.95
2019-03-19T01:43:06.803Z,5.95
2019-03-19T01:44:06.762Z,5.89
2019-03-19T01:45:06.715Z,5.91
2019-03-19T01:46:06.757Z,5.96
2019-03-19T01:47:06.745Z,5.81
2019-03-19T01:48:06.723Z,5.81
2019-03-19T01:49:06.698Z,5.81
2019-03-19T01:50:06.703Z,5.73
2019-03-19T01:51:06.693Z,5.71
2019-03-19T01:52:06.685Z,5.82
2019-03-19T01:53:06.720Z,5.78
2019-03-19T01:54:06.676Z,5.82
2019-03-19T01:55:06.663Z,5.78
2019-03-19T01:56:06.650Z,5.73
2019-03-19T01:57:06.606Z,5.64
2019-03-19T01:58:06.601Z,5.64
2019-03-19T01:59:06.612Z,5.63
2019-03-19T02:00:06.621Z,5.71
2019-03-19T02:01:06.564Z,5.60
2019-03-19T02:02:06.560Z,5.68
2019-03-19T02:03:06.622Z,5.53
2019-03-19T02:04:06.588Z,5.71
2019-03-19T02:05:06.553Z,5.56
2019-03-19T02:06:06.582Z,5.52
2019-03-19T02:07:06.524Z,5.48
2019-03-19T02:08:06.535Z,5.45
2019-03-19T02:09:06.548Z,5.41
2019-03-19T02:10:06.549Z,5.35
2019-03-19T02:11:06.496Z,5.48
2019-03-19T02:12:06.469Z,5.37
2019-03-19T02:13:06.504Z,5.31
2019-03-19T02:14:06.512Z,5.20
2019-03-19T02:15:06.518Z,5.20
2019-03-19T02:16:06.430Z,5.19
2019-03-19T02:17:06.457Z,5.07
2019-03-19T02:18:06.472Z,5.13
2019-03-19T02:19:06.395Z,5.13
2019-03-19T02:20:06.449Z,5.16
2019-03-19T02:21:06.445Z,5.09
2019-03-19T02:22:06.388Z,4.98
2019-03-19T02:23:06.379Z,4.99
2019-03-19T02:24:06.394Z,4.99
2019-03-19T02:25:06.386Z,4.96
2019-03-19T02:26:15.922Z,4.98
2019-03-19T02:27:06.322Z,4.95
2019-03-19T02:28:06.312Z,4.77
2019-03-19T02:29:06.334Z,4.83
2019-03-19T02:30:06.315Z,4.84
2019-03-19T02:31:06.302Z,4.77
2019-03-19T02:32:06.271Z,4.79
2019-03-19T02:33:06.310Z,4.83
2019-03-19T02:34:06.262Z,4.77
2019-03-19T02:35:06.270Z,4.65
2019-03-19T02:36:06.229Z,4.62
2019-03-19T02:37:06.240Z,4.62
2019-03-19T02:38:06.226Z,4.61
2019-03-19T02:39:06.206Z,4.64
2019-03-19T02:40:06.182Z,4.52
2019-03-19T02:41:06.178Z,4.57
2019-03-19T02:42:06.166Z,4.50
2019-03-19T02:43:06.180Z,4.55
2019-03-19T02:44:06.173Z,4.51
2019-03-19T02:45:06.132Z,4.54
2019-03-19T02:46:06.141Z,4.52
2019-03-19T02:47:06.119Z,4.54
2019-03-19T02:48:06.134Z,4.62
2019-03-19T02:49:06.150Z,4.46
2019-03-19T02:50:06.103Z,4.51
2019-03-19T02:51:06.077Z,4.52
2019-03-19T02:52:06.064Z,4.42
2019-03-19T02:53:06.054Z,4.36
2019-03-19T02:54:06.051Z,4.37
2019-03-19T02:55:06.045Z,4.36
2019-03-19T02:56:06.057Z,4.29
2019-03-19T02:57:06.016Z,4.29
2019-03-19T03:14:14.414Z,4.15
2019-03-19T03:15:14.412Z,4.15
2019-03-19T03:16:14.387Z,4.01
2019-03-19T03:17:14.367Z,4.03
2019-03-19T03:18:14.330Z,4.12
2019-03-19T03:19:14.329Z,4.04
2019-03-19T03:20:14.321Z,3.96
2019-03-19T03:21:14.293Z,3.96
2019-03-19T03:22:14.294Z,3.85
2019-03-19T03:23:14.304Z,3.86
2019-03-19T03:24:14.253Z,3.89
2019-03-19T03:25:14.243Z,3.98
2019-03-19T03:26:14.233Z,4.00
2019-03-19T03:27:14.236Z,3.97
2019-03-19T03:28:14.213Z,4.03
2019-03-19T03:29:14.214Z,4.06
2019-03-19T03:30:14.186Z,4.10
2019-03-19T03:31:14.190Z,4.18
2019-03-19T03:32:14.215Z,4.18
2019-03-19T03:33:14.173Z,4.18
2019-03-19T03:34:14.160Z,4.16
2019-03-19T03:35:14.132Z,4.16
2019-03-19T03:36:14.116Z,4.10
2019-03-19T03:37:14.116Z,3.98
2019-03-19T03:38:14.118Z,3.89
2019-03-19T03:39:14.092Z,3.82
2019-03-19T03:40:14.076Z,3.76
2019-03-19T03:41:14.065Z,3.75
2019-03-19T03:42:14.055Z,3.70
2019-03-19T03:43:14.059Z,3.70
2019-03-19T03:44:14.035Z,3.72
2019-03-19T03:45:14.018Z,3.68
2019-03-19T03:46:14.004Z,3.71
2019-03-19T03:47:14.002Z,3.68
2019-03-19T03:48:13.982Z,3.70
2019-03-19T03:49:13.979Z,3.80
2019-03-19T03:50:13.981Z,3.65
2019-03-19T03:51:13.953Z,3.64
2019-03-19T03:52:13.939Z,3.75
2019-03-19T03:53:13.927Z,3.75
2019-03-19T03:54:13.916Z,3.65
2019-03-19T03:55:13.924Z,3.72
2019-03-19T03:56:13.950Z,3.67
2019-03-19T03:57:13.883Z,3.71
2019-03-19T03:58:13.886Z,3.61
2019-03-19T03:59:13.857Z,3.61
2019-03-19T04:00:13.882Z,3.68
2019-03-19T04:01:13.847Z,3.64
2019-03-19T04:02:13.835Z,3.52
2019-03-19T04:03:13.821Z,3.64
2019-03-19T04:04:13.833Z,3.54
2019-03-19T04:05:13.801Z,3.53
2019-03-19T04:06:13.790Z,3.44
2019-03-19T04:07:13.789Z,3.49
2019-03-19T04:08:13.817Z,3.36
2019-03-19T04:09:22.506Z,3.44
2019-03-19T04:11:18.269Z,3.58
2019-03-19T04:12:18.226Z,3.52
2019-03-19T04:13:18.195Z,3.53
2019-03-19T04:14:18.181Z,3.47
2019-03-19T04:15:18.213Z,3.46
2019-03-19T04:16:18.297Z,3.47
2019-03-19T04:17:18.175Z,3.57
2019-03-19T04:18:18.140Z,3.57
2019-03-19T04:19:18.187Z,3.50
2019-03-19T04:20:18.208Z,3.54
2019-03-19T04:21:18.108Z,3.57
2019-03-19T04:22:18.105Z,3.52
2019-03-19T04:23:18.091Z,3.58
2019-03-19T04:24:18.061Z,3.65
2019-03-19T04:25:18.054Z,3.50
2019-03-19T04:26:18.085Z,3.44
2019-03-19T04:27:18.035Z,3.47
2019-03-19T04:28:18.037Z,3.50
2019-03-19T04:29:18.011Z,3.50
2019-03-19T04:30:18.002Z,3.53
2019-03-19T04:31:17.986Z,3.54
2019-03-19T04:32:17.978Z,3.44
2019-03-19T04:33:17.990Z,3.44
2019-03-19T04:34:26.630Z,3.47
2019-03-19T04:36:22.453Z,3.40
2019-03-19T04:37:22.431Z,3.36
2019-03-19T04:38:22.405Z,3.49
2019-03-19T04:39:22.400Z,3.47
2019-03-19T04:40:22.413Z,3.42
2019-03-19T04:41:22.369Z,3.47
2019-03-19T04:42:22.369Z,3.49
2019-03-19T04:43:22.355Z,3.50
2019-03-19T04:44:22.343Z,3.50
2019-03-19T04:45:22.351Z,3.52
2019-03-19T04:46:22.305Z,3.46
2019-03-19T04:47:22.302Z,3.49
2019-03-19T04:48:22.281Z,3.60
2019-03-19T04:49:22.278Z,3.65
2019-03-19T04:50:22.253Z,3.61
2019-03-19T04:51:22.249Z,3.60
2019-03-19T04:52:22.237Z,3.65
2019-03-19T04:53:24.116Z,3.65
2019-03-19T04:54:22.233Z,3.65
2019-03-19T04:55:22.209Z,3.58
2019-03-19T04:56:22.255Z,3.62
2019-03-19T04:57:26.816Z,3.67
2019-03-19T04:58:22.167Z,3.62
2019-03-19T04:59:22.186Z,3.67
2019-03-19T05:00:22.157Z,3.64
2019-03-19T05:01:22.139Z,3.62
2019-03-19T05:02:22.123Z,3.58
2019-03-19T05:03:22.125Z,3.68
2019-03-19T05:04:22.112Z,3.72
2019-03-19T05:05:22.094Z,3.75
2019-03-19T05:06:22.113Z,3.79
2019-03-19T05:07:22.073Z,3.85
2019-03-19T05:08:22.066Z,3.70
2019-03-19T05:09:22.051Z,3.70
2019-03-19T05:10:22.058Z,3.67
2019-03-19T05:11:22.054Z,3.79
2019-03-19T05:12:22.063Z,3.64
2019-03-19T05:13:22.016Z,3.67
2019-03-19T05:14:22.006Z,3.62
2019-03-19T05:15:21.985Z,3.65
2019-03-19T05:16:21.982Z,3.60
2019-03-19T05:17:22.014Z,3.64
2019-03-19T05:18:21.977Z,3.58
2019-03-19T05:19:21.938Z,3.50
2019-03-19T05:20:21.936Z,3.61
2019-03-19T05:21:21.916Z,3.62
2019-03-19T05:22:21.924Z,3.52
2019-03-19T05:23:21.937Z,3.58
2019-03-19T05:24:21.905Z,3.64
2019-03-19T05:25:21.876Z,3.58
2019-03-19T05:26:21.864Z,3.58
2019-03-19T05:27:21.870Z,3.60
2019-03-19T05:28:21.846Z,3.52
2019-03-19T05:29:21.848Z,3.62
2019-03-19T05:30:21.840Z,3.62
2019-03-19T05:31:21.810Z,3.60
2019-03-19T05:32:21.819Z,3.61
2019-03-19T05:33:21.800Z,3.65
2019-03-19T05:34:21.772Z,3.65
2019-03-19T05:35:21.807Z,3.64
2019-03-19T05:36:21.779Z,3.72
2019-03-19T05:37:21.758Z,3.70
2019-03-19T05:38:21.753Z,3.71
2019-03-19T05:39:21.715Z,3.80
2019-03-19T05:40:21.733Z,3.70
2019-03-19T05:41:21.708Z,3.83
2019-03-19T05:42:21.727Z,3.72
2019-03-19T05:43:21.675Z,3.71
2019-03-19T05:44:21.668Z,3.67
2019-03-19T05:45:21.657Z,3.65
2019-03-19T05:46:21.658Z,3.75
2019-03-19T05:47:21.642Z,3.76
2019-03-19T05:48:21.619Z,3.79
2019-03-19T05:49:21.612Z,3.80
2019-03-19T05:50:21.615Z,3.72
2019-03-19T05:51:21.608Z,3.76
2019-03-19T05:52:21.604Z,3.75
2019-03-19T05:53:21.563Z,3.68
2019-03-19T05:54:21.559Z,3.75
2019-03-19T05:55:21.587Z,3.72
2019-03-19T05:56:21.539Z,3.70
2019-03-19T05:57:21.532Z,3.78
2019-03-19T05:58:21.520Z,3.79
2019-03-19T05:59:30.164Z,3.72
2019-03-19T06:01:26.008Z,3.80
2019-03-19T06:02:25.952Z,3.67
2019-03-19T06:03:25.952Z,3.72
2019-03-19T06:04:25.954Z,3.90
2019-03-19T06:05:25.945Z,3.90
2019-03-19T06:06:25.962Z,3.92
2019-03-19T06:07:25.896Z,3.98
2019-03-19T06:08:25.885Z,4.00
2019-03-19T06:09:25.889Z,3.94
2019-03-19T06:10:26.203Z,3.98
2019-03-19T06:11:25.880Z,4.00
2019-03-19T06:12:25.841Z,3.97
2019-03-19T06:13:25.837Z,4.03
2019-03-19T06:14:25.830Z,3.97
2019-03-19T06:15:25.830Z,4.04
2019-03-19T06:16:25.803Z,4.03
2019-03-19T06:17:25.787Z,4.03
2019-03-19T06:18:34.635Z,3.97
2019-03-19T06:19:25.801Z,3.98
2019-03-19T06:20:25.756Z,4.06
2019-03-19T06:21:25.764Z,4.04
2019-03-19T06:22:25.743Z,4.01
2019-03-19T06:23:25.741Z,4.00
2019-03-19T06:24:25.719Z,4.04
2019-03-19T06:25:25.709Z,3.97
2019-03-19T06:26:25.696Z,4.08
2019-03-19T06:27:25.683Z,3.97
2019-03-19T06:28:25.684Z,4.03
2019-03-19T06:29:25.663Z,3.98
2019-03-19T06:30:25.675Z,4.04
2019-03-19T06:31:25.698Z,4.08
2019-03-19T06:32:25.630Z,4.06
2019-03-19T06:33:25.645Z,4.00
2019-03-19T06:34:25.614Z,4.00
2019-03-19T06:35:25.612Z,4.06
2019-03-19T06:36:25.597Z,4.01
2019-03-19T06:37:25.586Z,4.08
2019-03-19T06:38:25.581Z,4.04
2019-03-19T06:39:25.570Z,4.19
2019-03-19T06:40:25.546Z,4.18
2019-03-19T06:41:25.560Z,4.16
2019-03-19T06:42:25.549Z,4.15
2019-03-19T06:43:25.518Z,4.19
2019-03-19T06:44:25.516Z,4.15
2019-03-19T06:45:25.492Z,4.16
2019-03-19T06:46:25.483Z,4.18
2019-03-19T06:47:25.527Z,4.18
2019-03-19T06:48:25.468Z,4.15
2019-03-19T06:49:25.452Z,4.24
2019-03-19T06:50:27.919Z,4.24
2019-03-19T06:51:25.428Z,4.34
2019-03-19T06:52:25.428Z,4.42
2019-03-19T06:53:25.415Z,4.33
2019-03-19T06:54:25.422Z,4.37
2019-03-19T06:55:25.392Z,4.51
2019-03-19T06:56:25.387Z,4.46
2019-03-19T06:57:25.397Z,4.61
2019-03-19T06:58:25.366Z,4.61
2019-03-19T06:59:25.361Z,4.64
2019-03-19T07:00:25.362Z,4.77
2019-03-19T07:01:25.357Z,4.79
2019-03-19T07:02:25.323Z,4.79
2019-03-19T07:03:25.321Z,4.98
2019-03-19T07:04:25.304Z,4.98
2019-03-19T07:05:25.298Z,5.02
2019-03-19T07:06:25.281Z,4.94
2019-03-19T07:07:25.289Z,5.05
2019-03-19T07:08:25.268Z,5.12
2019-03-19T07:09:25.269Z,5.09
2019-03-19T07:10:25.257Z,5.02
2019-03-19T07:11:25.236Z,5.04
2019-03-19T07:12:25.227Z,5.12
2019-03-19T07:13:25.222Z,5.10
2019-03-19T07:14:25.211Z,5.09
2019-03-19T07:15:25.196Z,5.09
2019-03-19T07:16:25.188Z,5.16
2019-03-19T07:17:25.186Z,5.19
2019-03-19T07:18:25.162Z,5.12
2019-03-19T07:19:25.164Z,5.19
2019-03-19T07:20:25.170Z,5.19
2019-03-19T07:21:25.136Z,5.09
2019-03-19T07:22:25.132Z,5.12
2019-03-19T07:23:25.116Z,5.13
2019-03-19T07:24:25.119Z,5.19
2019-03-19T07:25:25.103Z,5.16
2019-03-19T07:26:25.090Z,5.19
2019-03-19T07:27:25.098Z,5.13
2019-03-19T07:28:25.071Z,5.22
2019-03-19T07:29:25.058Z,5.27
2019-03-19T07:30:25.133Z,5.34
2019-03-19T07:31:30.759Z,5.41
2019-03-19T07:32:25.061Z,5.45
2019-03-19T07:33:25.046Z,5.55
2019-03-19T07:34:25.009Z,5.63
2019-03-19T07:35:25.007Z,5.60
2019-03-19T07:36:24.994Z,5.66
2019-03-19T07:37:24.988Z,5.67
2019-03-19T07:38:25.000Z,5.68
2019-03-19T07:39:24.971Z,5.70
2019-03-19T07:40:24.955Z,5.71
2019-03-19T07:41:24.960Z,5.77
2019-03-19T07:42:24.946Z,5.83
2019-03-19T07:43:24.935Z,5.85
2019-03-19T07:44:24.938Z,5.92
2019-03-19T07:45:24.938Z,5.89
2019-03-19T07:46:24.910Z,5.77
2019-03-19T07:47:24.893Z,5.83
2019-03-19T07:48:24.881Z,5.85
2019-03-19T07:49:24.870Z,5.96
2019-03-19T07:50:24.866Z,5.96
2019-03-19T07:51:25.114Z,5.92
2019-03-19T07:52:24.896Z,5.93
2019-03-19T07:53:24.859Z,6.00
2019-03-19T07:54:24.832Z,5.95
2019-03-19T07:55:24.939Z,6.04
2019-03-19T07:56:24.826Z,5.95
2019-03-19T07:57:24.799Z,6.00
2019-03-19T07:58:35.731Z,5.93
2019-03-19T07:59:24.790Z,6.00
2019-03-19T08:00:24.790Z,6.06
2019-03-19T08:01:24.871Z,6.03
2019-03-19T08:02:24.757Z,6.11
2019-03-19T08:03:24.748Z,6.09
2019-03-19T08:04:24.760Z,6.09
2019-03-19T08:05:32.655Z,6.04
2019-03-19T08:06:24.725Z,6.14
2019-03-19T08:07:24.712Z,6.21
2019-03-19T08:08:24.712Z,6.09
2019-03-19T08:09:24.741Z,6.11
2019-03-19T08:10:24.697Z,6.18
2019-03-19T08:11:24.685Z,6.16
2019-03-19T08:12:24.676Z,6.25
2019-03-19T08:13:24.661Z,6.26
2019-03-19T08:14:24.652Z,6.30
2019-03-19T08:15:24.642Z,6.30
2019-03-19T08:16:27.648Z,6.36
2019-03-19T08:17:24.656Z,6.35
2019-03-19T08:18:24.640Z,6.41
2019-03-19T08:19:24.604Z,6.54
2019-03-19T08:20:24.614Z,6.47
2019-03-19T08:21:24.590Z,6.48
2019-03-19T08:22:24.577Z,6.51
2019-03-19T08:23:24.576Z,6.51
2019-03-19T08:24:24.563Z,6.54
2019-03-19T08:25:24.567Z,6.48
2019-03-19T08:26:24.570Z,6.51
2019-03-19T08:27:24.540Z,6.51
2019-03-19T08:28:24.525Z,6.71
2019-03-19T08:29:24.526Z,6.56
2019-03-19T08:30:25.136Z,6.61
2019-03-19T08:31:24.513Z,6.71
2019-03-19T08:32:24.523Z,6.77
2019-03-19T08:33:24.496Z,6.84
2019-03-19T08:34:24.470Z,6.84
2019-03-19T08:35:24.465Z,6.84
2019-03-19T08:36:24.484Z,6.81
2019-03-19T08:37:24.451Z,6.84
2019-03-19T08:38:26.493Z,6.83
2019-03-19T08:39:24.432Z,6.83
2019-03-19T08:40:24.422Z,6.84
2019-03-19T08:41:24.416Z,6.84
2019-03-19T08:42:24.408Z,6.97
2019-03-19T08:43:24.389Z,6.94
2019-03-19T08:44:27.987Z,6.95
2019-03-19T08:45:24.381Z,6.95
2019-03-19T08:46:24.376Z,7.05
2019-03-19T08:47:24.394Z,7.05
2019-03-19T08:48:24.358Z,7.07
2019-03-19T08:49:24.351Z,7.02
2019-03-19T08:50:24.378Z,6.97
2019-03-19T08:51:24.331Z,7.01
2019-03-19T08:52:24.348Z,6.98
2019-03-19T08:53:24.313Z,7.05
2019-03-19T08:54:24.310Z,7.02
2019-03-19T08:55:24.295Z,7.16
2019-03-19T08:56:24.308Z,7.09
2019-03-19T08:57:24.275Z,7.09
2019-03-19T08:58:24.293Z,7.16
2019-03-19T08:59:24.308Z,7.20
2019-03-19T09:00:24.258Z,7.32
2019-03-19T09:01:24.249Z,7.31
2019-03-19T09:02:24.253Z,7.19
2019-03-19T09:03:24.245Z,7.23
2019-03-19T09:04:24.223Z,7.34
2019-03-19T09:05:24.213Z,7.22
2019-03-19T09:06:24.210Z,7.35
2019-03-19T09:07:24.189Z,7.22
2019-03-19T09:08:24.176Z,7.31
2019-03-19T09:09:24.176Z,7.29
2019-03-19T09:10:24.165Z,7.44
2019-03-19T09:11:24.158Z,7.38
2019-03-19T09:12:24.145Z,7.45
2019-03-19T09:13:24.148Z,7.50
2019-03-19T09:14:24.138Z,7.40
2019-03-19T09:15:24.133Z,7.47
2019-03-19T09:16:24.117Z,7.72
2019-03-19T09:17:24.107Z,7.58
2019-03-19T09:18:24.115Z,7.62
2019-03-19T09:19:24.087Z,7.60
2019-03-19T09:20:24.077Z,7.67
2019-03-19T09:21:24.072Z,7.56
2019-03-19T09:22:29.591Z,7.60
2019-03-19T09:23:24.066Z,7.79
2019-03-19T09:24:24.076Z,7.60
2019-03-19T09:25:24.027Z,7.49
2019-03-19T09:26:24.032Z,7.59
2019-03-19T09:27:24.012Z,7.67
2019-03-19T09:28:24.005Z,7.71
2019-03-19T09:29:25.449Z,7.77
2019-03-19T09:30:24.012Z,7.81
2019-03-19T09:31:23.981Z,8.00
2019-03-19T09:32:23.988Z,7.85
2019-03-19T09:33:23.967Z,7.93
2019-03-19T09:34:23.959Z,8.07
2019-03-19T09:35:26.138Z,8.08
2019-03-19T09:36:23.947Z,7.93
2019-03-19T09:37:32.632Z,7.99
2019-03-19T09:39:28.429Z,8.08
2019-03-19T09:40:28.413Z,8.25
2019-03-19T09:41:28.406Z,8.11
2019-03-19T09:42:28.395Z,8.11
2019-03-19T09:43:28.375Z,8.12
2019-03-19T09:44:28.356Z,7.93
2019-03-19T09:45:28.369Z,8.04
2019-03-19T09:46:28.368Z,7.93
2019-03-19T09:47:28.385Z,7.94
2019-03-19T09:48:28.401Z,7.94
2019-03-19T09:49:28.368Z,7.93
2019-03-19T09:50:28.315Z,7.96
2019-03-19T09:51:28.311Z,7.96
2019-03-19T09:52:28.292Z,7.93
2019-03-19T09:53:28.279Z,7.87
2019-03-19T09:54:28.271Z,7.90
2019-03-19T09:55:28.268Z,7.84
2019-03-19T09:56:28.255Z,7.92
2019-03-19T09:57:28.252Z,7.96
2019-03-19T09:58:28.237Z,8.00
2019-03-19T09:59:28.236Z,8.00
2019-03-19T10:00:28.245Z,8.21
2019-03-19T10:01:28.226Z,8.10
2019-03-19T10:02:28.241Z,8.12
2019-03-19T10:03:28.221Z,8.29
2019-03-19T10:04:28.196Z,8.07
2019-03-19T10:05:28.192Z,8.11
2019-03-19T10:06:28.169Z,8.17
2019-03-19T10:07:28.185Z,8.14
2019-03-19T10:08:28.167Z,8.21
2019-03-19T10:09:28.186Z,8.28
2019-03-19T10:10:28.207Z,8.26
2019-03-19T10:11:28.145Z,8.28
2019-03-19T10:12:28.124Z,8.30
2019-03-19T10:13:28.112Z,8.30
2019-03-19T10:14:28.125Z,8.26
2019-03-19T10:15:28.133Z,8.30
2019-03-19T10:16:28.093Z,8.39
2019-03-19T10:17:28.107Z,8.45
2019-03-19T10:18:28.118Z,8.35
2019-03-19T10:19:28.139Z,8.36
2019-03-19T10:20:28.142Z,8.42
2019-03-19T10:21:28.097Z,8.58
2019-03-19T10:22:28.061Z,8.68
2019-03-19T10:23:28.064Z,8.65
2019-03-19T10:24:28.089Z,8.60
2019-03-19T10:25:28.037Z,8.66
2019-03-19T10:26:28.044Z,8.62
2019-03-19T10:27:28.078Z,8.71
2019-03-19T10:28:28.030Z,8.65
2019-03-19T10:29:37.843Z,8.88
2019-03-19T10:30:28.017Z,8.90
2019-03-19T10:31:28.026Z,8.88
2019-03-19T10:32:28.018Z,8.99
2019-03-19T10:33:27.986Z,9.09
2019-03-19T10:34:27.975Z,9.12
2019-03-19T10:35:28.035Z,9.06
2019-03-19T10:36:27.998Z,9.06
2019-03-19T10:37:27.938Z,9.04
2019-03-19T10:38:27.918Z,9.12
2019-03-19T10:39:27.955Z,9.04
2019-03-19T10:40:27.905Z,9.04
2019-03-19T10:41:27.986Z,9.15
2019-03-19T10:42:27.925Z,9.02
2019-03-19T10:43:27.914Z,9.04
2019-03-19T10:44:27.884Z,9.10
2019-03-19T10:45:27.909Z,9.06
2019-03-19T10:46:27.902Z,9.05
2019-03-19T10:47:27.901Z,9.06
2019-03-19T10:48:27.881Z,9.25
2019-03-19T10:49:27.846Z,9.45
2019-03-19T10:50:27.876Z,9.53
2019-03-19T10:51:27.871Z,9.28
2019-03-19T10:52:27.888Z,9.30
2019-03-19T10:53:27.855Z,9.38
2019-03-19T10:54:27.866Z,9.32
2019-03-19T10:55:27.823Z,9.38
2019-03-19T10:56:27.802Z,9.30
2019-03-19T10:57:27.814Z,9.21
2019-03-19T10:58:27.797Z,9.24
2019-03-19T10:59:27.806Z,9.21
2019-03-19T11:00:27.808Z,9.43
2019-03-19T11:01:27.800Z,9.40
2019-03-19T11:02:27.753Z,9.28
2019-03-19T11:03:27.783Z,9.32
2019-03-19T11:04:27.794Z,9.38
2019-03-19T11:05:27.760Z,9.39
2019-03-19T11:06:27.754Z,9.45
2019-03-19T11:07:27.757Z,9.42
2019-03-19T11:08:27.767Z,9.30
2019-03-19T11:09:27.770Z,9.35
2019-03-19T11:10:27.747Z,9.40
2019-03-19T11:11:27.756Z,9.52
2019-03-19T11:12:27.741Z,9.46
2019-03-19T11:13:27.700Z,9.38
2019-03-19T11:14:27.758Z,9.53
2019-03-19T11:15:27.713Z,9.49
2019-03-19T11:16:27.738Z,9.58
2019-03-19T11:17:28.589Z,9.58
2019-03-19T11:18:27.737Z,9.61
2019-03-19T11:19:27.672Z,9.42
2019-03-19T11:20:27.645Z,9.49
2019-03-19T11:21:27.654Z,9.53
2019-03-19T11:22:27.696Z,9.67
2019-03-19T11:23:27.697Z,9.73
2019-03-19T11:24:27.664Z,9.83
2019-03-19T11:25:27.585Z,9.78
2019-03-19T11:26:27.652Z,9.82
2019-03-19T11:27:27.628Z,9.89
2019-03-19T11:28:27.599Z,9.89
2019-03-19T11:29:27.601Z,10.03
2019-03-19T11:30:28.337Z,9.96
2019-03-19T11:31:27.553Z,10.04
2019-03-19T11:32:27.560Z,10.00
2019-03-19T11:33:27.580Z,9.97
2019-03-19T11:34:27.615Z,9.91
2019-03-19T11:35:27.563Z,9.75
2019-03-19T11:36:27.598Z,9.71
2019-03-19T11:37:27.538Z,9.70
2019-03-19T11:38:27.590Z,9.67
2019-03-19T11:39:27.546Z,9.70
2019-03-19T11:40:27.511Z,9.66
2019-03-19T11:41:27.515Z,9.78
2019-03-19T11:42:27.493Z,9.73
2019-03-19T11:43:27.486Z,9.96
2019-03-19T11:44:27.478Z,9.81
2019-03-19T11:45:27.489Z,9.79
2019-03-19T11:46:27.446Z,9.70
2019-03-19T11:47:27.442Z,9.73
2019-03-19T11:48:27.459Z,9.66
2019-03-19T11:49:27.435Z,9.71
2019-03-19T11:50:27.413Z,9.94
2019-03-19T11:51:27.442Z,9.79
2019-03-19T11:52:27.456Z,9.66
2019-03-19T11:53:27.407Z,9.67
2019-03-19T11:54:27.406Z,9.66
2019-03-19T11:55:27.399Z,9.76
2019-03-19T11:56:27.374Z,9.64
2019-03-19T11:57:27.450Z,9.71
2019-03-19T11:58:27.431Z,9.78
2019-03-19T11:59:27.411Z,9.79
2019-03-19T12:00:27.431Z,9.94
2019-03-19T12:01:27.409Z,9.97
2019-03-19T12:02:27.393Z,9.96
2019-03-19T12:03:27.373Z,10.04
2019-03-19T12:04:27.362Z,10.14
2019-03-19T12:05:27.339Z,10.06
2019-03-19T12:06:27.365Z,10.06
2019-03-19T12:07:27.331Z,9.96
2019-03-19T12:08:27.341Z,10.07
2019-03-19T12:09:27.335Z,10.07
2019-03-19T12:10:27.313Z,10.15
2019-03-19T12:11:27.320Z,10.28
2019-03-19T12:12:27.325Z,10.37
2019-03-19T12:13:27.297Z,10.42
2019-03-19T12:14:27.290Z,10.47
2019-03-19T12:15:27.264Z,10.52
2019-03-19T12:16:27.256Z,10.47
2019-03-19T12:17:27.285Z,10.51
2019-03-19T12:18:27.272Z,10.40
2019-03-19T12:19:27.247Z,10.40
2019-03-19T12:20:27.242Z,10.42
2019-03-19T12:21:27.228Z,10.26
2019-03-19T12:22:27.227Z,10.17
2019-03-19T12:23:27.237Z,10.09
2019-03-19T12:24:27.211Z,10.17
2019-03-19T12:25:27.201Z,9.94
2019-03-19T12:26:27.198Z,9.89
2019-03-19T12:27:27.198Z,9.86
2019-03-19T12:28:27.185Z,9.79
2019-03-19T12:29:27.168Z,9.85
2019-03-19T12:30:27.186Z,9.79
2019-03-19T12:31:27.175Z,9.81
2019-03-19T12:32:27.158Z,9.81
2019-03-19T12:33:27.148Z,9.79
2019-03-19T12:34:27.143Z,9.79
2019-03-19T12:35:27.138Z,9.68
2019-03-19T12:36:27.138Z,9.82
2019-03-19T12:37:27.143Z,9.79
2019-03-19T12:38:27.108Z,9.75
2019-03-19T12:39:27.104Z,9.73
2019-03-19T12:40:36.383Z,9.85
2019-03-19T12:41:27.094Z,9.79
2019-03-19T12:42:27.104Z,9.94
2019-03-19T12:43:27.094Z,9.85
2019-03-19T12:44:27.104Z,9.91
2019-03-19T12:45:27.094Z,9.94
2019-03-19T12:46:27.072Z,10.10
2019-03-19T12:47:27.096Z,10.03
2019-03-19T12:48:27.055Z,9.93
2019-03-19T12:49:27.053Z,10.03
2019-03-19T12:50:27.041Z,10.03
2019-03-19T12:51:27.041Z,10.01
2019-03-19T12:52:27.024Z,10.17
2019-03-19T12:53:27.024Z,10.18
2019-03-19T12:54:27.013Z,10.25
2019-03-19T12:55:26.996Z,10.28
2019-03-19T12:56:26.995Z,10.28
2019-03-19T12:57:27.024Z,10.32
2019-03-19T12:58:26.982Z,10.34
2019-03-19T12:59:26.981Z,10.37
2019-03-19T13:00:34.244Z,10.39
2019-03-19T13:01:28.596Z,10.40
2019-03-19T13:02:26.956Z,10.40
2019-03-19T13:03:26.953Z,10.36
2019-03-19T13:04:26.941Z,10.42
2019-03-19T13:05:26.968Z,10.37
2019-03-19T13:06:26.935Z,10.34
2019-03-19T13:07:26.947Z,10.28
2019-03-19T13:08:26.920Z,10.34
2019-03-19T13:09:26.972Z,10.47
2019-03-19T13:10:26.902Z,10.44
2019-03-19T13:11:26.937Z,10.42
2019-03-19T13:12:26.893Z,10.52
2019-03-19T13:13:26.890Z,10.59
2019-03-19T13:14:26.891Z,10.56
2019-03-19T13:15:26.887Z,10.63
2019-03-19T13:16:26.900Z,10.60
2019-03-19T13:17:26.877Z,10.53
2019-03-19T13:18:26.867Z,10.63
2019-03-19T13:19:26.857Z,10.51
2019-03-19T13:20:26.849Z,10.56
2019-03-19T13:21:26.875Z,10.56
2019-03-19T13:22:26.884Z,10.66
2019-03-19T13:23:26.879Z,10.59
2019-03-19T13:24:26.893Z,10.60
2019-03-19T13:25:26.833Z,10.51
2019-03-19T13:26:26.807Z,10.40
2019-03-19T13:27:26.804Z,10.43
2019-03-19T13:28:26.821Z,10.42
2019-03-19T13:29:26.825Z,10.46
2019-03-19T13:30:26.800Z,10.55
2019-03-19T13:31:26.820Z,10.52
2019-03-19T13:32:28.291Z,10.55
2019-03-19T13:33:26.771Z,10.59
2019-03-19T13:34:26.771Z,10.62
2019-03-19T13:35:26.797Z,10.73
2019-03-19T13:36:26.779Z,10.74